Time;durP1;ratioP1;P1;durP2;ratioP2;P2;SDS_P1;SDS_P2;PMS_P1;PMS_P2;Temp;Humidity;BMP_temperature;BMP_pressure;BME280_temperature;BME280_humidity;BME280_pressure;Samples;Min_cycle;Max_cycle;Signal;HPM_P1;HPM_P2
2022/10/13 00:01:49;;;;;;;17.40;6.43;;;;;;;;;;5074304;28;20217;-59
2022/10/13 00:04:14;;;;;;;17.58;6.82;;;14.00;99.90;;;;;;5065126;28;20173;-59
2022/10/13 00:06:40;;;;;;;15.80;7.40;;;;;;;;;;5067273;28;20276;-58
2022/10/13 00:09:06;;;;;;;15.57;7.15;;;14.00;99.90;;;;;;5071476;28;20512;-58
2022/10/13 00:11:31;;;;;;;12.45;6.65;;;14.00;99.90;;;;;;5059927;28;20264;-58
2022/10/13 00:14:00;;;;;;;17.88;6.75;;;14.00;99.90;;;;;;5076750;28;20196;-59
2022/10/13 00:16:27;;;;;;;17.90;6.45;;;14.00;99.90;;;;;;5075447;28;20219;-59
2022/10/13 00:18:53;;;;;;;20.02;7.50;;;14.00;99.90;;;;;;5064572;28;20184;-60
2022/10/13 00:21:23;;;;;;;17.35;6.40;;;14.00;99.90;;;;;;5076771;28;20631;-62
2022/10/13 00:23:49;;;;;;;17.88;7.07;;;14.00;99.90;;;;;;5076591;28;20543;-60
2022/10/13 00:26:16;;;;;;;13.23;7.22;;;14.00;99.90;;;;;;5072199;28;20181;-60
2022/10/13 00:28:41;;;;;;;15.88;7.03;;;14.00;99.90;;;;;;5076927;28;20184;-60
2022/10/13 00:31:25;;;;;;;11.63;6.43;;;14.10;99.90;;;;;;5076918;28;20210;-60
2022/10/13 00:33:51;;;;;;;13.30;6.18;;;13.80;99.90;;;;;;5076413;28;20596;-60
2022/10/13 00:36:19;;;;;;;19.30;5.78;;;14.00;99.90;;;;;;5071648;28;20169;-59
2022/10/13 00:38:44;;;;;;;15.88;5.25;;;14.10;99.90;;;;;;5065268;28;20191;-59
2022/10/13 00:41:10;;;;;;;16.65;5.03;;;14.00;99.90;;;;;;5077126;28;20168;-59
2022/10/13 00:43:59;;;;;;;11.20;5.25;;;13.90;99.90;;;;;;5066473;28;20683;-59
2022/10/13 00:46:28;;;;;;;14.23;5.57;;;15.50;99.90;;;;;;5062587;28;20659;-59
2022/10/13 00:48:56;;;;;;;13.60;5.05;;;13.90;99.90;;;;;;5064646;28;20234;-60
2022/10/13 00:51:25;;;;;;;17.05;5.60;;;13.90;99.90;;;;;;5056924;28;20169;-59
2022/10/13 00:53:52;;;;;;;13.48;5.22;;;13.90;99.90;;;;;;5070603;28;20180;-59
2022/10/13 00:56:20;;;;;;;14.30;4.85;;;13.60;99.90;;;;;;5071358;28;20175;-59
2022/10/13 00:58:47;;;;;;;11.18;4.30;;;13.80;99.90;;;;;;5056820;28;20203;-59
2022/10/13 01:01:13;;;;;;;13.20;3.83;;;13.80;99.90;;;;;;5068258;28;20274;-59
2022/10/13 01:03:39;;;;;;;13.43;3.38;;;13.80;99.90;;;;;;5076470;28;20176;-59
2022/10/13 01:06:06;;;;;;;12.35;3.60;;;13.60;99.90;;;;;;5073101;28;20314;-59
2022/10/13 01:08:32;;;;;;;10.07;3.03;;;13.70;99.90;;;;;;5067549;28;20271;-60
2022/10/13 01:11:19;;;;;;;15.20;3.97;;;13.70;99.90;;;;;;5075191;28;20181;-58
2022/10/13 01:13:55;;;;;;;12.25;3.70;;;13.70;99.90;;;;;;5071998;28;20191;-58
2022/10/13 01:16:28;;;;;;;11.85;3.92;;;13.80;99.90;;;;;;5068184;28;20369;-58
2022/10/13 01:19:08;;;;;;;13.18;3.38;;;13.70;99.90;;;;;;5067894;28;20256;-58
2022/10/13 01:21:53;;;;;;;11.18;3.50;;;13.70;99.90;;;;;;5057930;28;20208;-59
2022/10/13 01:24:44;;;;;;;10.20;4.45;;;13.80;99.90;;;;;;5064707;28;20165;-59
2022/10/13 01:27:22;;;;;;;11.60;4.57;;;13.70;99.90;;;;;;5072976;28;20175;-59
2022/10/13 01:30:05;;;;;;;10.18;4.95;;;13.60;99.90;;;;;;5072708;28;20176;-59
2022/10/13 01:32:49;;;;;;;15.27;5.68;;;13.70;99.90;;;;;;5073012;28;20221;-59
2022/10/13 01:35:26;;;;;;;17.88;5.50;;;13.70;99.90;;;;;;5059430;28;20209;-59
2022/10/13 01:38:14;;;;;;;24.63;5.10;;;13.70;99.90;;;;;;5054519;28;20173;-59
2022/10/13 01:40:46;;;;;;;13.00;5.30;;;13.60;99.90;;;;;;5072831;28;20202;-59
2022/10/13 01:43:23;;;;;;;14.80;4.95;;;13.60;99.90;;;;;;5063642;28;20192;-59
2022/10/13 01:45:57;;;;;;;17.03;5.03;;;13.60;99.90;;;;;;5070636;28;20172;-59
2022/10/13 01:48:25;;;;;;;14.25;4.97;;;13.60;99.90;;;;;;5071804;28;20179;-59
2022/10/13 01:50:53;;;;;;;12.68;5.50;;;13.60;99.90;;;;;;5065785;28;20185;-58
2022/10/13 01:53:20;;;;;;;13.00;4.50;;;13.60;99.90;;;;;;5070641;28;20230;-59
2022/10/13 01:55:55;;;;;;;16.20;4.93;;;13.50;99.90;;;;;;5055540;28;20217;-59
2022/10/13 01:58:23;;;;;;;14.02;4.25;;;13.50;99.90;;;;;;5052675;28;20230;-58
2022/10/13 02:01:26;;;;;;;10.38;4.10;;;13.50;99.90;;;;;;5064232;28;20181;-58
2022/10/13 02:03:56;;;;;;;10.93;4.50;;;13.40;99.90;;;;;;5065322;28;20177;-59
2022/10/13 02:06:35;;;;;;;11.55;4.55;;;13.40;99.90;;;;;;5061402;28;20717;-58
2022/10/13 02:09:11;;;;;;;13.63;4.65;;;13.30;99.90;;;;;;5070592;28;20332;-59
2022/10/13 02:11:41;;;;;;;14.70;4.63;;;13.40;99.90;;;;;;5070038;28;20180;-58
2022/10/13 02:14:27;;;;;;;9.13;4.03;;;13.20;99.90;;;;;;5058102;28;20640;-60
2022/10/13 02:16:54;;;;;;;17.05;4.90;;;13.10;99.90;;;;;;5062255;28;20220;-59
2022/10/13 02:19:21;;;;;;;10.57;4.70;;;13.10;99.90;;;;;;5064903;28;20256;-60
2022/10/13 02:21:47;;;;;;;14.40;4.57;;;13.00;99.90;;;;;;5063513;28;20181;-60
2022/10/13 02:24:13;;;;;;;14.10;4.70;;;13.00;99.90;;;;;;5066699;28;20176;-59
2022/10/13 02:26:40;;;;;;;13.10;4.70;;;12.80;99.90;;;;;;5071159;28;20680;-60
2022/10/13 02:29:10;;;;;;;12.53;4.73;;;12.80;99.90;;;;;;5060703;28;20187;-60
2022/10/13 02:31:37;;;;;;;11.20;4.30;;;12.90;99.90;;;;;;5071879;28;20176;-60
2022/10/13 02:34:03;;;;;;;17.73;5.17;;;12.80;99.90;;;;;;5069858;28;20161;-60
2022/10/13 02:36:29;;;;;;;12.73;4.67;;;12.80;99.90;;;;;;5070177;28;20180;-60
2022/10/13 02:38:55;;;;;;;9.77;4.87;;;12.70;99.90;;;;;;5056686;28;20238;-60
2022/10/13 02:41:20;;;;;;;15.40;5.27;;;12.70;99.90;;;;;;5069852;28;20179;-60
2022/10/13 02:43:46;;;;;;;19.37;5.13;;;12.60;99.90;;;;;;5052596;28;20632;-60
2022/10/13 02:46:11;;;;;;;20.23;6.90;;;12.50;99.90;;;;;;5051110;28;20409;-60
2022/10/13 02:48:37;;;;;;;18.10;5.20;;;12.50;99.90;;;;;;5051564;28;20641;-61
2022/10/13 02:51:03;;;;;;;11.97;5.10;;;12.50;99.90;;;;;;5054083;28;20174;-60
2022/10/13 02:53:28;;;;;;;19.20;5.60;;;12.40;99.90;;;;;;5071105;28;20526;-60
2022/10/13 02:55:54;;;;;;;17.13;5.90;;;;;;;;;;5056586;28;20213;-60
2022/10/13 02:58:20;;;;;;;16.57;5.57;;;12.40;99.90;;;;;;5071373;28;20212;-60
2022/10/13 03:00:46;;;;;;;11.83;5.07;;;12.30;99.90;;;;;;5070826;28;20184;-60
2022/10/13 03:03:11;;;;;;;10.87;4.70;;;12.20;99.90;;;;;;5071172;28;20192;-60
2022/10/13 03:05:37;;;;;;;12.93;5.40;;;12.20;99.90;;;;;;5070739;28;20189;-60
2022/10/13 03:08:03;;;;;;;11.27;4.97;;;12.00;99.90;;;;;;5070998;28;20229;-60
2022/10/13 03:10:30;;;;;;;14.37;4.73;;;12.20;99.90;;;;;;5070940;28;20183;-60
2022/10/13 03:12:57;;;;;;;11.70;4.83;;;12.10;99.90;;;;;;5071098;28;20173;-60
2022/10/13 03:15:23;;;;;;;19.13;4.37;;;;;;;;;;5070460;28;20294;-60
2022/10/13 03:17:49;;;;;;;32.93;5.00;;;11.30;99.90;;;;;;5059806;28;20562;-60
2022/10/13 03:20:15;;;;;;;20.37;5.03;;;11.80;99.90;;;;;;5059211;28;20277;-59
2022/10/13 03:22:41;;;;;;;23.83;4.90;;;;;;;;;;5068753;28;20523;-60
2022/10/13 03:25:07;;;;;;;22.50;4.47;;;11.90;99.90;;;;;;5069729;28;20185;-60
2022/10/13 03:27:33;;;;;;;36.23;5.00;;;11.80;99.90;;;;;;5068170;28;20183;-60
2022/10/13 03:29:58;;;;;;;15.40;4.60;;;11.70;99.90;;;;;;5069216;28;20184;-60
2022/10/13 03:32:24;;;;;;;17.47;5.03;;;11.80;99.90;;;;;;5059430;28;20180;-60
2022/10/13 03:34:51;;;;;;;15.80;4.20;;;11.70;99.90;;;;;;5070188;28;20713;-61
2022/10/13 03:37:17;;;;;;;25.27;5.20;;;11.80;99.90;;;;;;5059804;28;20177;-61
2022/10/13 03:39:42;;;;;;;21.43;5.37;;;11.50;99.90;;;;;;5050742;28;20625;-60
2022/10/13 03:42:09;;;;;;;25.57;4.77;;;11.70;99.90;;;;;;5055131;28;20173;-58
2022/10/13 03:44:34;;;;;;;20.03;4.80;;;11.70;99.90;;;;;;5062966;28;20827;-59
2022/10/13 03:47:00;;;;;;;13.80;4.43;;;11.70;99.90;;;;;;5063012;28;20187;-59
2022/10/13 03:49:26;;;;;;;15.73;3.60;;;;;;;;;;5061094;28;20180;-59
2022/10/13 03:51:51;;;;;;;27.37;4.53;;;11.60;99.90;;;;;;5070535;28;20614;-59
2022/10/13 03:54:17;;;;;;;17.93;4.90;;;11.50;99.90;;;;;;5068454;28;20207;-59
2022/10/13 03:56:43;;;;;;;19.23;4.70;;;11.40;99.90;;;;;;5050747;28;20649;-59
2022/10/13 03:59:11;;;;;;;36.00;4.90;;;11.50;99.90;;;;;;5052276;28;20177;-59
2022/10/13 04:01:37;;;;;;;25.57;5.87;;;;;;;;;;5063318;28;20181;-59
2022/10/13 04:04:03;;;;;;;14.37;4.27;;;11.60;99.90;;;;;;5062907;28;20184;-59
2022/10/13 04:06:30;;;;;;;33.13;5.20;;;11.30;99.90;;;;;;5050879;28;20655;-60
2022/10/13 04:08:56;;;;;;;63.83;5.93;;;11.50;99.90;;;;;;5067981;28;20177;-59
2022/10/13 04:11:22;;;;;;;54.90;6.10;;;11.50;99.90;;;;;;5069930;28;20173;-59
2022/10/13 04:13:48;;;;;;;59.40;6.00;;;11.50;99.90;;;;;;5066787;28;20222;-60
2022/10/13 04:16:20;;;;;;;86.13;6.57;;;11.50;99.90;;;;;;5066949;28;20299;-59
2022/10/13 04:18:52;;;;;;;21.10;6.27;;;11.40;99.90;;;;;;5055543;28;20164;-60
2022/10/13 04:21:18;;;;;;;16.33;5.83;;;11.30;99.90;;;;;;5070792;28;20593;-59
2022/10/13 04:23:43;;;;;;;128.90;7.57;;;11.70;99.90;;;;;;5070118;28;20643;-60
2022/10/13 04:26:16;;;;;;;130.07;7.33;;;11.40;99.90;;;;;;5068884;28;20180;-60
2022/10/13 04:28:41;;;;;;;131.27;6.97;;;11.50;99.90;;;;;;5064710;28;20262;-59
2022/10/13 04:31:07;;;;;;;95.97;6.47;;;11.70;99.90;;;;;;5059311;28;20559;-59
2022/10/13 04:33:33;;;;;;;46.27;5.97;;;11.60;99.90;;;;;;5064530;28;20654;-60
2022/10/13 04:36:02;;;;;;;159.47;7.47;;;11.60;99.90;;;;;;5057231;28;20619;-60
2022/10/13 04:38:27;;;;;;;70.30;5.90;;;11.60;99.90;;;;;;5069085;28;20168;-60
2022/10/13 04:40:53;;;;;;;117.10;7.90;;;11.60;99.90;;;;;;5069109;28;20697;-60
2022/10/13 04:43:19;;;;;;;27.73;6.80;;;11.50;99.90;;;;;;5055820;28;20166;-60
2022/10/13 04:45:44;;;;;;;26.60;6.43;;;11.50;99.90;;;;;;5062214;28;20180;-60
2022/10/13 04:48:10;;;;;;;23.87;5.83;;;11.50;99.90;;;;;;5072511;28;20188;-60
2022/10/13 04:50:36;;;;;;;15.03;6.03;;;11.30;99.90;;;;;;5063238;28;20177;-60
2022/10/13 04:53:02;;;;;;;59.13;7.73;;;11.50;99.90;;;;;;5054966;28;20216;-60
2022/10/13 04:55:27;;;;;;;30.20;6.20;;;11.40;99.90;;;;;;5063278;28;20224;-60
2022/10/13 04:57:53;;;;;;;44.87;6.80;;;11.40;99.90;;;;;;5053667;28;20169;-61
2022/10/13 05:00:19;;;;;;;25.77;6.30;;;11.30;99.90;;;;;;5063080;28;20322;-60
2022/10/13 05:02:44;;;;;;;24.50;6.63;;;11.30;99.90;;;;;;5072207;28;20558;-60
2022/10/13 05:05:10;;;;;;;13.67;6.43;;;11.20;99.90;;;;;;5069961;28;20180;-60
2022/10/13 05:07:36;;;;;;;10.07;5.57;;;11.20;99.90;;;;;;5071518;28;20173;-60
2022/10/13 05:10:02;;;;;;;12.67;5.67;;;11.20;99.90;;;;;;5053657;28;20256;-61
2022/10/13 05:12:28;;;;;;;15.80;5.57;;;11.20;99.90;;;;;;5058097;28;20205;-61
2022/10/13 05:14:53;;;;;;;26.17;6.03;;;11.10;99.90;;;;;;5057076;28;20251;-59
2022/10/13 05:17:19;;;;;;;23.73;5.10;;;11.20;99.90;;;;;;5073068;28;20208;-59
2022/10/13 05:19:44;;;;;;;24.53;5.13;;;11.10;99.90;;;;;;5073467;28;20645;-60
2022/10/13 05:22:10;;;;;;;11.07;4.67;;;11.10;99.90;;;;;;5072234;28;20176;-61
2022/10/13 05:24:36;;;;;;;10.63;5.47;;;11.10;99.90;;;;;;5068386;28;20264;-60
2022/10/13 05:27:08;;;;;;;14.40;4.83;;;11.00;99.90;;;;;;5070451;28;20625;-60
2022/10/13 05:29:34;;;;;;;42.00;6.93;;;10.80;99.90;;;;;;5072572;28;20234;-60
2022/10/13 05:31:59;;;;;;;25.57;4.57;;;10.90;99.90;;;;;;5072863;28;20635;-61
2022/10/13 05:34:25;;;;;;;18.93;4.73;;;10.80;99.90;;;;;;5071961;28;20232;-61
2022/10/13 05:36:51;;;;;;;17.00;5.17;;;11.00;99.90;;;;;;5071152;28;20180;-60
2022/10/13 05:39:16;;;;;;;12.63;4.53;;;10.70;99.90;;;;;;5061029;28;20223;-61
2022/10/13 05:41:42;;;;;;;97.10;5.93;;;10.60;99.90;;;;;;5060434;28;20674;-59
2022/10/13 05:44:08;;;;;;;238.90;8.97;;;10.80;99.90;;;;;;5052752;28;20189;-61
2022/10/13 05:46:34;;;;;;;179.70;7.70;;;10.60;99.90;;;;;;5053650;28;20234;-61
2022/10/13 05:49:00;;;;;;;54.70;4.87;;;10.40;99.90;;;;;;5072189;28;20627;-59
2022/10/13 05:51:36;;;;;;;27.00;4.47;;;10.40;99.90;;;;;;5072370;28;20180;-60
2022/10/13 05:54:24;;;;;;;31.03;4.60;;;10.50;99.90;;;;;;5072002;28;20176;-59
2022/10/13 05:57:03;;;;;;;10.83;4.53;;;10.60;99.90;;;;;;5072104;28;20172;-59
2022/10/13 05:59:32;;;;;;;69.00;5.90;;;10.50;99.90;;;;;;5071894;28;20225;-59
2022/10/13 06:01:58;;;;;;;67.33;7.30;;;10.70;99.90;;;;;;5071493;28;20169;-61
2022/10/13 06:04:34;;;;;;;130.53;6.90;;;10.80;99.90;;;;;;5068522;28;20679;-61
2022/10/13 06:07:00;;;;;;;47.80;6.00;;;10.80;99.90;;;;;;5060441;28;20204;-60
2022/10/13 06:09:36;;;;;;;33.83;5.03;;;10.90;99.90;;;;;;5070778;28;20250;-59
2022/10/13 06:12:02;;;;;;;338.97;13.20;;;11.00;99.90;;;;;;5069423;28;20192;-59
2022/10/13 06:14:29;;;;;;;167.73;8.47;;;11.00;99.90;;;;;;5063051;28;20239;-60
2022/10/13 06:16:55;;;;;;;62.07;7.30;;;11.10;99.90;;;;;;5071583;28;20224;-60
2022/10/13 06:19:20;;;;;;;99.03;7.63;;;11.00;99.90;;;;;;5070971;28;20258;-60
2022/10/13 06:21:46;;;;;;;387.33;13.00;;;10.70;99.90;;;;;;5071394;28;20238;-60
2022/10/13 06:24:11;;;;;;;293.37;11.73;;;11.00;99.90;;;;;;5072006;28;20251;-59
2022/10/13 06:26:37;;;;;;;242.73;10.33;;;11.00;99.90;;;;;;5071263;28;20215;-60
2022/10/13 06:29:03;;;;;;;138.33;8.80;;;11.20;99.90;;;;;;5071743;28;20230;-59
2022/10/13 06:31:28;;;;;;;272.23;10.37;;;11.20;99.90;;;;;;5052325;28;20188;-59
2022/10/13 06:33:54;;;;;;;370.63;12.50;;;11.10;99.90;;;;;;5068601;28;20210;-59
2022/10/13 06:36:20;;;;;;;288.77;11.30;;;14.10;99.90;;;;;;5059671;28;20212;-61
2022/10/13 06:38:45;;;;;;;291.43;11.73;;;11.20;99.90;;;;;;5071579;28;20544;-60
2022/10/13 06:41:13;;;;;;;515.47;18.73;;;11.20;99.90;;;;;;5061006;28;20242;-60
2022/10/13 06:43:39;;;;;;;507.23;21.57;;;11.10;99.90;;;;;;5052792;28;20640;-60
2022/10/13 06:46:05;;;;;;;572.63;21.57;;;11.30;99.90;;;;;;5071298;28;20212;-60
2022/10/13 06:48:30;;;;;;;248.07;13.03;;;11.40;99.90;;;;;;5071779;28;20208;-59
2022/10/13 06:51:04;;;;;;;114.87;9.70;;;11.40;99.90;;;;;;5071677;28;20684;-59
2022/10/13 06:53:29;;;;;;;238.20;12.60;;;11.40;99.90;;;;;;5071605;28;20169;-59
2022/10/13 06:55:59;;;;;;;262.10;11.77;;;11.30;99.90;;;;;;5066149;28;20197;-60
2022/10/13 06:58:25;;;;;;;221.90;11.63;;;11.30;99.90;;;;;;5051613;28;20176;-60
2022/10/13 07:00:51;;;;;;;158.60;10.63;;;11.30;99.90;;;;;;5065219;28;20206;-64
2022/10/13 07:03:17;;;;;;;250.40;11.47;;;11.40;99.90;;;;;;5072434;28;20172;-65
2022/10/13 07:05:43;;;;;;;126.83;11.43;;;11.50;99.90;;;;;;5069868;28;20687;-63
2022/10/13 07:08:09;;;;;;;199.27;11.73;;;11.30;99.90;;;;;;5071462;28;20558;-63
2022/10/13 07:10:36;;;;;;;70.40;9.27;;;11.30;99.90;;;;;;5070389;28;20168;-63
2022/10/13 07:13:02;;;;;;;74.07;8.90;;;11.00;99.90;;;;;;5065712;28;20441;-63
2022/10/13 07:15:28;;;;;;;75.50;9.90;;;11.50;99.90;;;;;;5062307;28;20764;-62
2022/10/13 07:17:54;;;;;;;82.23;9.20;;;11.30;99.90;;;;;;5051428;28;20168;-62
2022/10/13 07:20:20;;;;;;;131.30;9.90;;;11.40;99.90;;;;;;5064874;28;20217;-62
2022/10/13 07:22:47;;;;;;;57.13;10.57;;;;;;;;;;5070885;28;20259;-62
2022/10/13 07:25:13;;;;;;;52.77;10.70;;;11.40;99.90;;;;;;5070211;28;20268;-63
2022/10/13 07:27:39;;;;;;;35.07;11.13;;;11.40;99.90;;;;;;5052285;28;20204;-62
2022/10/13 07:30:07;;;;;;;59.57;12.77;;;11.50;99.90;;;;;;5059306;28;20181;-60
2022/10/13 07:32:34;;;;;;;49.93;11.57;;;11.50;99.90;;;;;;5070546;28;20263;-62
2022/10/13 07:34:59;;;;;;;40.43;12.17;;;11.60;99.90;;;;;;5070786;28;20295;-63
2022/10/13 07:37:25;;;;;;;40.30;12.07;;;11.60;99.90;;;;;;5068867;28;20280;-62
2022/10/13 07:39:51;;;;;;;28.70;9.40;;;11.60;99.90;;;;;;5062342;28;20177;-62
2022/10/13 07:42:17;;;;;;;31.27;10.37;;;11.60;99.90;;;;;;5049913;28;20172;-63
2022/10/13 07:44:43;;;;;;;35.10;10.43;;;11.60;99.90;;;;;;5063533;28;20175;-62
2022/10/13 07:47:09;;;;;;;29.97;9.87;;;;;;;;;;5069046;28;20193;-62
2022/10/13 07:49:35;;;;;;;32.70;11.27;;;11.70;99.90;;;;;;5070348;28;20466;-62
2022/10/13 07:52:01;;;;;;;28.87;10.37;;;;;;;;;;5059518;28;20601;-62
2022/10/13 07:54:27;;;;;;;30.90;10.20;;;11.80;99.90;;;;;;5050641;28;20212;-62
2022/10/13 07:56:53;;;;;;;25.20;9.97;;;11.80;99.90;;;;;;5063720;28;20632;-63
2022/10/13 07:59:19;;;;;;;47.27;13.67;;;11.70;99.90;;;;;;5069004;28;20205;-63
2022/10/13 08:01:45;;;;;;;36.63;12.47;;;11.80;99.90;;;;;;5064824;28;20177;-63
2022/10/13 08:04:10;;;;;;;36.23;11.83;;;11.90;99.90;;;;;;5050476;28;20578;-63
2022/10/13 08:06:36;;;;;;;31.23;13.03;;;11.80;99.90;;;;;;5061685;28;20547;-62
2022/10/13 08:09:03;;;;;;;37.10;13.70;;;11.90;99.90;;;;;;5070630;28;20539;-67
2022/10/13 08:11:29;;;;;;;29.93;12.73;;;11.90;99.90;;;;;;5069131;28;20173;-67
2022/10/13 08:13:59;;;;;;;39.50;13.27;;;12.10;99.90;;;;;;5058621;28;20181;-65
2022/10/13 08:16:25;;;;;;;24.03;10.97;;;;;;;;;;5050369;28;20213;-64
2022/10/13 08:18:51;;;;;;;31.37;11.70;;;12.10;99.90;;;;;;5050504;28;20227;-64
2022/10/13 08:21:18;;;;;;;27.60;10.30;;;12.30;99.90;;;;;;5049574;28;20173;-65
2022/10/13 08:23:44;;;;;;;22.00;9.57;;;12.20;99.90;;;;;;5063219;28;20173;-65
2022/10/13 08:26:16;;;;;;;21.83;9.40;;;12.30;99.90;;;;;;5062967;28;20215;-61
2022/10/13 08:28:42;;;;;;;17.87;9.23;;;12.50;99.90;;;;;;5070290;28;20176;-65
2022/10/13 08:31:07;;;;;;;19.43;9.10;;;12.90;99.90;;;;;;5073458;28;20179;-65
2022/10/13 08:33:33;;;;;;;19.33;8.60;;;;;;;;;;5059910;28;20174;-64
2022/10/13 08:35:59;;;;;;;21.97;8.90;;;12.50;99.90;;;;;;5059624;28;20702;-62
2022/10/13 08:38:25;;;;;;;21.80;8.67;;;12.70;99.90;;;;;;5060557;28;20177;-63
2022/10/13 08:40:52;;;;;;;18.47;8.33;;;12.80;99.90;;;;;;5064064;28;20202;-63
2022/10/13 08:43:20;;;;;;;15.87;7.83;;;12.90;99.90;;;;;;5074177;28;20172;-64
2022/10/13 08:45:48;;;;;;;16.60;7.70;;;13.10;99.90;;;;;;5073749;28;20176;-63
2022/10/13 08:48:21;;;;;;;14.98;7.07;;;13.20;99.90;;;;;;5074003;28;20168;-64
2022/10/13 08:50:53;;;;;;;11.17;6.73;;;13.30;99.90;;;;;;5073968;28;20164;-61
2022/10/13 08:53:45;;;;;;;14.75;7.18;;;13.40;99.90;;;;;;5073775;28;20173;-61
2022/10/13 08:56:24;;;;;;;16.65;7.20;;;13.60;99.90;;;;;;5072502;28;20207;-61
2022/10/13 08:58:53;;;;;;;21.45;9.82;;;13.60;99.90;;;;;;5073386;28;20176;-62
2022/10/13 09:01:33;;;;;;;18.98;9.70;;;13.70;99.90;;;;;;5073381;28;20230;-62
2022/10/13 09:04:35;;;;;;;20.90;9.70;;;13.70;99.90;;;;;;5072915;28;20234;-62
2022/10/13 09:07:05;;;;;;;19.05;8.55;;;13.70;99.90;;;;;;5072392;28;20255;-62
2022/10/13 09:09:31;;;;;;;16.75;9.35;;;14.00;99.90;;;;;;5071487;28;20169;-62
2022/10/13 09:11:57;;;;;;;14.88;8.82;;;14.10;99.90;;;;;;5072958;28;20164;-59
2022/10/13 09:14:32;;;;;;;19.42;9.07;;;14.20;99.90;;;;;;5072949;28;20213;-57
2022/10/13 09:17:31;;;;;;;16.00;9.13;;;14.30;99.90;;;;;;5070751;28;20216;-57
2022/10/13 09:20:16;;;;;;;22.67;9.65;;;14.40;99.90;;;;;;5057586;28;20188;-58
2022/10/13 09:22:42;;;;;;;20.27;9.57;;;14.60;99.90;;;;;;5053095;28;20336;-58
2022/10/13 09:25:08;;;;;;;20.92;9.25;;;14.80;99.90;;;;;;5051988;28;20531;-58
2022/10/13 09:27:50;;;;;;;20.33;9.27;;;14.90;99.90;;;;;;5071226;28;20276;-57
2022/10/13 09:30:34;;;;;;;19.92;9.70;;;15.00;99.90;;;;;;5071754;28;20172;-58
2022/10/13 09:33:11;;;;;;;24.70;8.85;;;15.20;99.90;;;;;;5071642;28;20231;-58
2022/10/13 09:35:46;;;;;;;27.52;8.63;;;15.40;99.90;;;;;;5070491;28;20208;-58
2022/10/13 09:38:23;;;;;;;21.80;8.25;;;15.30;99.90;;;;;;5072096;28;20172;-58
2022/10/13 09:41:19;;;;;;;21.02;8.57;;;15.50;99.90;;;;;;5072683;28;20196;-58
2022/10/13 09:43:45;;;;;;;20.98;8.15;;;15.70;99.90;;;;;;5064442;28;20188;-58
2022/10/13 09:46:21;;;;;;;23.13;9.20;;;15.90;99.90;;;;;;5070959;28;20218;-58
2022/10/13 09:48:55;;;;;;;17.08;8.73;;;16.00;99.90;;;;;;5072256;28;20172;-59
2022/10/13 09:51:37;;;;;;;20.50;9.10;;;16.10;99.90;;;;;;5072933;28;20257;-58
2022/10/13 09:54:04;;;;;;;25.73;10.13;;;16.30;99.90;;;;;;5072747;28;20172;-58
2022/10/13 09:56:36;;;;;;;26.83;10.10;;;16.30;99.90;;;;;;5070557;28;20220;-58
2022/10/13 09:59:06;;;;;;;30.10;9.38;;;16.60;99.90;;;;;;5070804;28;20176;-58
2022/10/13 10:01:37;;;;;;;30.42;9.68;;;16.80;99.90;;;;;;5070652;28;20744;-58
2022/10/13 10:04:08;;;;;;;29.15;10.27;;;16.80;99.90;;;;;;5071008;28;20179;-58
2022/10/13 10:06:36;;;;;;;21.10;9.20;;;17.10;99.90;;;;;;5068799;28;20577;-58
2022/10/13 10:09:34;;;;;;;22.27;9.40;;;17.30;99.90;;;;;;5070879;28;20181;-58
2022/10/13 10:12:01;;;;;;;22.42;9.18;;;17.40;99.90;;;;;;5058272;28;20196;-58
2022/10/13 10:14:38;;;;;;;27.63;10.23;;;17.20;99.90;;;;;;5072511;28;20662;-58
2022/10/13 10:17:16;;;;;;;21.27;9.75;;;17.10;99.90;;;;;;5072153;28;20718;-58
2022/10/13 10:20:05;;;;;;;25.98;9.77;;;17.00;99.90;;;;;;5072324;28;20177;-58
2022/10/13 10:22:59;;;;;;;25.15;11.38;;;16.90;99.90;;;;;;5072352;28;20168;-58
2022/10/13 10:25:35;;;;;;;26.10;11.60;;;17.00;99.90;;;;;;5072180;28;20172;-58
2022/10/13 10:28:16;;;;;;;21.38;11.00;;;17.40;99.90;;;;;;5072239;28;20196;-58
2022/10/13 10:31:00;;;;;;;26.98;11.82;;;17.70;99.90;;;;;;5072246;28;20233;-58
2022/10/13 10:33:52;;;;;;;19.55;9.73;;;18.00;99.90;;;;;;5072167;28;20655;-58
2022/10/13 10:36:22;;;;;;;28.52;10.07;;;18.50;99.90;;;;;;5071873;28;20755;-59
2022/10/13 10:38:53;;;;;;;19.80;8.55;;;20.50;99.90;;;;;;5072018;28;20181;-58
2022/10/13 10:41:45;;;;;;;32.33;10.05;;;19.90;99.90;;;;;;5071978;28;20217;-58
2022/10/13 10:44:23;;;;;;;24.65;8.80;;;18.90;99.90;;;;;;5069395;28;20211;-58
2022/10/13 10:46:50;;;;;;;16.88;6.35;;;;;;;;;;5071684;28;20200;-58
2022/10/13 10:49:32;;;;;;;22.27;7.90;;;18.80;99.90;;;;;;5071880;28;20691;-58
2022/10/13 10:52:00;;;;;;;24.13;7.88;;;19.90;99.90;;;;;;5071724;28;20185;-59
2022/10/13 10:54:26;;;;;;;16.38;7.22;;;21.30;99.90;;;;;;5071518;28;20187;-57
2022/10/13 10:56:57;;;;;;;15.70;6.43;;;23.60;99.90;;;;;;5071378;28;20180;-59
2022/10/13 10:59:34;;;;;;;15.63;5.90;;;23.20;99.90;;;;;;5071537;28;20309;-58
2022/10/13 11:02:05;;;;;;;17.20;5.85;;;25.10;99.90;;;;;;5071486;28;20211;-58
2022/10/13 11:04:39;;;;;;;14.77;5.60;;;24.70;99.90;;;;;;5071247;28;20176;-58
2022/10/13 11:07:11;;;;;;;14.45;4.85;;;21.90;99.90;;;;;;5070107;28;20172;-58
2022/10/13 11:09:40;;;;;;;16.17;4.20;;;20.50;99.90;;;;;;5071280;28;20168;-58
2022/10/13 11:12:21;;;;;;;16.25;4.38;;;19.90;99.90;;;;;;5071480;28;20173;-58
2022/10/13 11:14:53;;;;;;;18.52;4.60;;;19.10;99.90;;;;;;5070939;28;20235;-58
2022/10/13 11:17:36;;;;;;;13.50;4.30;;;18.90;99.90;;;;;;5070921;28;20228;-58
2022/10/13 11:20:25;;;;;;;13.30;4.30;;;18.40;99.90;;;;;;5071098;28;20176;-58
2022/10/13 11:22:56;;;;;;;12.40;4.60;;;22.70;99.90;;;;;;5067769;28;20169;-60
2022/10/13 11:25:42;;;;;;;11.48;4.00;;;24.50;99.90;;;;;;5070741;28;20234;-59
2022/10/13 11:28:22;;;;;;;11.73;3.90;;;26.10;99.90;;;;;;5070834;28;20164;-58
2022/10/13 11:31:26;;;;;;;17.92;4.88;;;27.50;99.90;;;;;;5070865;28;20180;-59
2022/10/13 11:33:58;;;;;;;11.85;4.65;;;28.40;99.90;;;;;;5070867;28;20168;-58
2022/10/13 11:36:52;;;;;;;11.75;3.83;;;29.10;99.90;;;;;;5070825;28;20242;-59
2022/10/13 11:39:25;;;;;;;12.23;4.13;;;29.20;99.90;;;;;;5070709;28;20177;-59
2022/10/13 11:42:09;;;;;;;11.07;3.97;;;29.50;99.90;;;;;;5070674;28;20263;-59
2022/10/13 11:44:57;;;;;;;15.48;4.15;;;29.50;99.90;;;;;;5070785;28;20184;-59
2022/10/13 11:47:47;;;;;;;9.05;3.47;;;29.90;99.90;;;;;;5070649;28;20168;-59
2022/10/13 11:50:45;;;;;;;16.15;4.15;;;29.80;99.90;;;;;;5070935;28;20202;-58
2022/10/13 11:53:17;;;;;;;9.07;3.45;;;28.60;99.90;;;;;;5070634;28;20756;-59
2022/10/13 11:55:50;;;;;;;12.70;3.95;;;24.70;99.90;;;;;;5068882;28;20307;-58
2022/10/13 11:58:30;;;;;;;11.88;3.70;;;24.70;99.90;;;;;;5070656;28;20252;-58
2022/10/13 12:00:57;;;;;;;12.88;3.65;;;23.30;99.90;;;;;;5070669;28;20181;-58
2022/10/13 12:03:37;;;;;;;10.93;3.50;;;22.20;99.90;;;;;;5070657;28;20169;-58
2022/10/13 12:06:25;;;;;;;10.38;3.30;;;20.70;99.90;;;;;;5070907;28;20534;-58
2022/10/13 12:08:51;;;;;;;12.10;3.58;;;20.60;99.90;;;;;;5070499;28;20168;-58
2022/10/13 12:11:32;;;;;;;15.88;3.42;;;20.20;99.90;;;;;;5069919;28;20180;-58
2022/10/13 12:13:58;;;;;;;15.85;3.80;;;;;;;;;;5070390;28;20184;-58
2022/10/13 12:16:24;;;;;;;9.20;3.28;;;;;;;;;;5070293;28;20231;-58
2022/10/13 12:18:50;;;;;;;12.48;3.45;;;26.80;99.90;;;;;;5070209;28;20172;-59
2022/10/13 12:21:20;;;;;;;10.80;3.30;;;27.60;99.90;;;;;;5070315;28;20173;-59
2022/10/13 12:23:50;;;;;;;10.07;3.42;;;28.70;99.90;;;;;;5054291;28;20188;-59
2022/10/13 12:26:19;;;;;;;8.52;3.05;;;29.60;99.90;;;;;;5068628;28;20169;-58
2022/10/13 12:28:51;;;;;;;11.48;3.10;;;30.50;99.90;;;;;;5070238;28;20248;-59
2022/10/13 12:31:23;;;;;;;16.85;3.00;;;30.30;99.90;;;;;;5068548;28;20172;-60
2022/10/13 12:33:59;;;;;;;9.65;2.97;;;30.20;99.90;;;;;;5067892;28;20187;-59
2022/10/13 12:36:30;;;;;;;7.70;3.08;;;31.20;99.90;;;;;;5069303;28;20203;-59
2022/10/13 12:39:02;;;;;;;9.68;3.08;;;30.80;99.90;;;;;;5063112;28;20173;-59
2022/10/13 12:41:33;;;;;;;9.13;2.92;;;31.00;99.90;;;;;;5050857;28;20291;-59
2022/10/13 12:43:59;;;;;;;11.02;2.92;;;31.30;99.90;;;;;;5050000;28;20180;-59
2022/10/13 12:46:42;;;;;;;9.38;3.03;;;30.90;99.90;;;;;;5050073;28;20173;-59
2022/10/13 12:49:22;;;;;;;9.98;3.03;;;30.90;99.90;;;;;;5050306;28;20229;-59
2022/10/13 12:52:09;;;;;;;10.75;2.90;;;30.90;99.90;;;;;;5051905;28;20238;-59
2022/10/13 12:54:37;;;;;;;10.45;3.00;;;31.40;99.90;;;;;;5065064;28;20212;-59
2022/10/13 12:57:14;;;;;;;9.13;2.88;;;30.40;99.90;;;;;;5049945;28;20566;-60
2022/10/13 12:59:41;;;;;;;9.85;3.20;;;30.40;99.90;;;;;;5050144;28;20180;-59